AirNav   Everest Fuels
 
 713 users online  

AL97 Williamson Farm Airport
Loxley, Alabama, USA

GOING TO LOXLEY?


FAA INFORMATION EFFECTIVE 31 JANUARY 2019

Location

FAA Identifier: AL97
Lat/Long: 30-38-42.4300N / 087-40-14.0300W
30-38.707167N / 087-40.233833W
30.6451194 / -87.6705639
(estimated)
Elevation: 162 ft. / 49 m (estimated)
Variation: 01E (1990)
From city: 5 miles NE of LOXLEY, AL
Time zone: UTC -6 (UTC -5 during Daylight Saving Time)
Zip code: 36551

Airport Operations

Airport use: Private use. Permission required prior to landing
Activation date: 08/1992
Control tower: no
ARTCC: JACKSONVILLE CENTER
FSS: ANNISTON FLIGHT SERVICE STATION
Attendance: UNATNDD
Wind indicator: yes
Segmented circle: no

Airport Communications

WX AWOS-3PT at CQF (15 nm SW): 118.425 (251-928-3242)

Nearby radio navigation aids

VOR radial/distance  VOR name  Freq  Var
BFMr080/20.0BROOKLEY VORTAC112.8004E
NUNr300/(20.2)SAUFLEY VOR108.8001E
SJIr093/35.9SEMMES VORTAC115.3005E

 
NDB name  Hdg/Dist  Freq  Var  ID
PICKENS298/28.332602WPKZ .--. -.- --..
WISLE103/33.424801WMOB -- --- -...

Airport Services

Runway Information

Runway 18/36

Dimensions: 2000 x 100 ft. / 610 x 30 m
Surface: turf
RUNWAY 18  RUNWAY 36
Traffic pattern: leftleft
Obstructions: none30 ft. pline, 600 ft. from runway

Airport Ownership and Management from official FAA records

Ownership: Privately-owned
Owner: S. R. WILLIAMSON
20687 COUNTY ROAD 68
ROBERTSDALE, AL 36567
Phone 251-960-5274
Manager: S. R. WILLIAMSON
20687 COUNTY ROAD 68
ROBERTSDALE, AL 36567
Phone 251-960-5274
AMGR PHONE 251-960-5274

Airport Operational Statistics

Aircraft based on the field: 1
Single engine airplanes: 1
    

Instrument Procedures

There are no published instrument procedures at AL97.

Some nearby airports with instrument procedures:

5R4 - Foley Municipal Airport (13 nm S)
KCQF - H L Sonny Callahan Airport (15 nm SW)
1R8 - Bay Minette Municipal Airport (16 nm NW)
KBFM - Mobile Downtown Airport (21 nm W)
KJKA - Jack Edwards National Airport (21 nm S)
 
Loc | Ops | Rwys | IFR | FBO | Links
Com | Nav | Svcs | Stats | Notes

Continental Motors
AirBoss

 
Area around AL97 (Williamson Farm Airport)
 
Road maps at: MapQuest Bing Google
 
Aerial photo
No photo
 
Sectional chart

 
Airport distance calculator
Flying to Williamson Farm Airport? Find the distance to fly.

From to AL97

Sunrise and sunset
Times for 15-Feb-2019
 Local
(UTC-6)
 Zulu
(UTC)
Morning civil twilight06:0812:08
Sunrise06:3212:32
Sunset17:3723:37
Evening civil twilight18:0200:02

Current date and time
Zulu (UTC)  16-Feb-2019 03:43:23
Local (UTC-6)  15-Feb-2019 21:43:23
 
METAR
KCQF 
15nm SW 
160315Z AUTO 00000KT 10SM OVC037 17/17 A2986 RMK AO2
KBFM 
21nm W 
160253Z 22006KT 10SM OVC037 20/16 A2987 RMK AO2 SLP114 T02000161 55002
KJKA 
21nm S 
160315Z AUTO 23007G14KT 10SM SCT039 OVC060 19/M14 A2986 RMK AO2 T01891138
KNPA 
25nm SE 
160256Z 21006KT 10SM BKN043 18/17 A2985 RMK AO2 SLP108 T01830172 58003
KPNS 
27nm E 
160253Z 21004KT 10SM OVC043 19/17 A2985 RMK AO2 SLP109 T01940167 58004 $
KMOB 
30nm W 
160256Z 22008KT 7SM OVC035 19/16 A2986 RMK AO2 SLP107 60000 T01890156 55000
TAF
KBFM 
21nm W 
152038Z 1521/1618 20010KT P6SM BKN028 OVC050 FM160600 22009KT 6SM BR OVC015 FM161200 25005KT 4SM BR OVC007
KNPA 
25nm SE 
1523/1623 19008KT 9999 BKN050 OVC120 QNH2982INS FM160600 22007KT 9999 VCSH FEW012 OVC025 QNH2980INS FM160900 21007KT 6000 BR VCSH SCT009 OVC015 QNH2977INS TEMPO 1612/1617 4800 RA BR BKN007 FM161700 23007KT 9999 BKN015 OVC050 QNH2970INS AUTOMATED SENSOR METWTCH 1603 TIL 1615 T18/1610Z T23/1618Z FN20034
NOTAMs
Click for the latest NOTAMs
NOTAMs are issued by the DoD/FAA and will open in a separate window not controlled by AirNav.

 

 
 

Would you like to see your business listed on this page?

 If your business provides an interesting product or service to pilots, flight crews, aircraft, or users of the Williamson Farm Airport, you should consider listing it here.  To start the listing process, click on the button below
 
Add a business
 

Other Pages about Williamson Farm Airport

Update a link
 
Copyright © AirNav, LLC. All rights reserved. Privacy Policy  Contact